• Join FlightAware (Why Join?)
  • Login
  • US Flag 
09:02PM EST


 

Airport Tracker/Info


-or-


 

Live Flight TrackerFlight Track Log ✈ N525AL ✈ 06-Aug-2014 ✈ KDXR - KDXR

Flight Track Log - Related Links

Times and Time Zones

All times are in EDT time to prevent confusion due to time zone crossing. See the N525AL flight status page for this flight to view local times or setup timezone preferences in your user account.

Time Position Orientation Groundspeed Altitude Reporting Facility
EDT Latitude Longitude Course Direction KTS MPH feet Rate Location/Type
06:59AM 41.3833 -73.8500 217° Southwest 205 236 8,100  Level New York TRACON
07:01AM 41.2667 -73.9667 217° Southwest 278 320 8,000 -33 Descending New York TRACON
07:02AM 41.2000 -74.0000 201° Southwest 276 318 8,000  Level New York TRACON
07:03AM 41.1333 -74.0333 201° Southwest 276 318 8,000 150 Level New York TRACON
07:04AM 41.0500 -74.0667 197° South 271 312 8,300 400 Climbing New York TRACON
07:05AM 40.9833 -74.1000 201° Southwest 278 320 8,800 421 Climbing New York TRACON
07:06AM 40.9333 -74.1500 217° Southwest 283 326 9,100 474 Climbing New York TRACON
07:07AM 40.9167 -74.2500 258° West 269 310 9,700 850 Climbing New York TRACON
07:08AM 40.9000 -74.3333 255° West 255 293 10,800 950 Climbing New York TRACON
07:09AM 40.8833 -74.4333 258° West 253 291 11,600 733 Climbing New York TRACON
07:10AM 40.8769 -74.5281 265° West 257 296 12,400 722 Climbing New York Center
07:11AM 40.8653 -74.6289 261° West 257 296 13,200 738 Climbing New York Center
07:12AM 40.8561 -74.7136 262° West 257 296 13,900 712 Climbing New York Center
07:13AM 40.8444 -74.8117 261° West 257 296 14,600 550 Climbing New York Center
07:14AM 40.8308 -74.9094 260° West 257 296 15,000 148 Climbing New York Center
07:15AM 40.7947 -74.9867 238° Southwest 247 284 14,900 -504 Descending New York Center
07:16AM 40.7119 -74.9681 170° South 231 266 14,000 -416 Descending New York Center
07:18AM 40.7167 -74.8500 87° East 262 302 13,700 -612 Descending New York TRACON
07:21AM 40.9333 -74.7333 58° Northeast 250 288 11,000 -540 Descending New York TRACON
07:23AM 41.0500 -74.5833 44° Northeast 310 357 11,000  Level New York TRACON
07:24AM 41.1167 -74.5000 43° Northeast 297 342 11,000  Level New York TRACON
07:27AM 41.2167 -74.2000 69° East 302 348 11,000 -175 Level New York TRACON
07:28AM 41.2333 -74.1000 77° East 311 358 10,300 -750 Descending New York TRACON
07:29AM 41.2500 -73.9833 79° East 305 351 9,500 -842 Descending New York TRACON
07:30AM 41.2833 -73.9000 62° Northeast 261 300 8,700 -1,895 Descending New York TRACON
07:31AM 41.3000 -73.8167 75° East 263 303 5,900 -2,750 Descending New York TRACON
07:32AM 41.3167 -73.7167 77° East 257 296 3,200 -1,450 Descending New York TRACON
07:33AM 41.3333 -73.6500 72° East 206 237 3,000 -300 Descending New York TRACON
07:34AM 41.3500 -73.5833 72° East 168 193 2,600 -368 Descending New York TRACON
07:35AM 41.3667 -73.5333 66° East 174 200 2,300 -263 Descending New York TRACON
07:36AM 41.3833 -73.4833 66° East 154 177 2,100 -200 Descending New York TRACON